Ashby, Massachusetts
Current Conditions -  °F | °C
As of 4:52 AM on Monday 26 Jan 2015 (Local Time) from KFIT Reporting Station
Clear Clear  
Wind Chill: 11°   Ceiling: Unl
Heat Index: 11°   Visibility: 10mi
Dew Point: -3°   Wind: 0mph
Humidity: 54%   Direction: NA
Pressure: 30.09"   Gusts: NA
Location:  42.68°N, 71.82°W
Report Text: KFIT 260952Z AUTO 00000KT 10SM CLR M12/M19 A3009 RMK AO2 SLP195 T11171194
Loading
Personal Weather Stations






























Interactive Weather Map New forecast layout! Learn more

10-Day Weather Forecast

Advertisements
Track Severe Weather on mobile